Delray Beach, FL

1:31 PM EDT on March 27, 2015 (GMT -0400)
Pompano Beach | | Change Station
CLOSE
Current Station
Airport
Location: Pompano Beach,
Elevation: 20 ft
Nearby Weather Stations

Elev 20 ft 26.25 °N, 80.11 °W | Updated 38 minutes ago

Partly Cloudy
Partly Cloudy
90 °F
Feels Like 92 °F
N
17
Wind Variable Wind from SW
Gusts 24 mph

Today
High -- | Low -- °F
--% Chance of Precip.
Yesterday
High -- | Low -- °F
Precip. -- in
7:16 AM 7:34 PM
First Quarter, 54% visible
Pressure 29.90 in
Visibility 10.0 miles
Clouds Few 4500 ft
Heat Index 92 °F
Dew Point 66 °F
Humidity 45%
Rainfall 0.00 in
Snow Depth Not available.
UV 12 out of 12
Pollen 9.60 out of 12
Air Quality Not available.
Flu Activity Not available.
METAR KPMP 271653Z 22015G21KT 170V250 10SM FEW045 32/19 A2990 RMK AO2 SLP124 T03220189

More Conditions Fewer Conditions

Pressure 29.90 in
Visibility 10.0 miles
Clouds Few 4500 ft
Heat Index 92 °F
Dew Point 66 °F
Humidity 45%
Rainfall 0.00 in
Snow Depth Not available.
UV 12 out of 12
Pollen 9.60 out of 12
Air Quality Not available.
Flu Activity Not available.
METAR KPMP 271653Z 22015G21KT 170V250 10SM FEW045 32/19 A2990 RMK AO2 SLP124 T03220189

More Conditions Fewer Conditions

Nowcast | as of 12:47 PM EDT on March 27, 2015

At 1245 PM EDT...Doppler radar indicated a thunderstorm...near North County Airport...or near Palm Beach Gardens moving northeast at 20 mph. Expect heavy rain and winds gusting to 35 mph as this thunderstorm passes. Locations impacted include... West Palm Beach...Jupiter...Palm Beach Gardens...Tequesta and Juno Beach.

×

10-Day Weather Forecast

Almanac

Astronomy

Mar. 27, 2015 Rise Set
Actual Time
Civil Twilight
Nautical Twilight
Astronomical Twilight
Moon
Length of Visible Light
Length of Day
Tomorrow will be .
, % of the Moon is Illuminated

Today's Extremes

State Highs State Lows

Community

WunderPhotos

Upload Photos

1,808,770 photos uploaded!

WunderBlogs® & News

Nearby

Air Quality

  Air Quality AQ Index Pollutant
Not available.

Snow Depth

Station Depth Elevation

Earthquake Activity

City Distance Mag. Time & Date
Minimum magnitude displayed is 2.5.

Coastal Water Temperatures

Place Temperature

Stations

Nearby Weather Stations

Station Location Temp. Windchill Dew Point Humidity Wind Precip. Elev Updated Type